Time;durP1;ratioP1;P1;durP2;ratioP2;P2;SDS_P1;SDS_P2;PMS_P1;PMS_P2;Temp;Humidity;BMP_temperature;BMP_pressure;BME280_temperature;BME280_humidity;BME280_pressure;Samples;Min_cycle;Max_cycle;Signal;HPM_P1;HPM_P2
2022/08/15 00:00:23;;;;;;;;;;;;;;;24.34;48.67;98883.97;4355057;32;33371;-74
2022/08/15 00:02:53;;;;;;;;;;;;;;;24.35;48.76;98882.81;4370342;32;35066;-68
2022/08/15 00:05:28;;;;;;;;;;;;;;;24.37;48.56;98886.03;4357953;32;33730;-65
2022/08/15 00:07:56;;;;;;;;;;;;;;;24.36;48.58;98887.19;4361058;32;34846;-79
2022/08/15 00:10:23;;;;;;;;;;;;;;;23.98;49.47;98879.59;4363069;32;33430;-68
2022/08/15 00:13:13;;;;;;;;;;;;;;;24.19;49.05;98888.41;4366882;32;35055;-66
2022/08/15 00:15:42;;;;;;;;;;;;;;;24.29;48.77;98889.78;4352381;32;35297;-67
2022/08/15 00:18:11;;;;;;;;;;;;;;;24.11;49.29;98889.41;4367913;32;34307;-67
2022/08/15 00:20:39;;;;;;;;;;;;;;;24.10;49.48;98893.31;4343228;32;32925;-67
2022/08/15 00:23:18;;;;;;;;;;;;;;;23.97;49.85;98889.84;4371382;32;35232;-76
2022/08/15 00:25:53;;;;;;;;;;;;;;;24.10;49.50;98888.59;4373545;32;35378;-69
2022/08/15 00:28:25;;;;;;;;;;;;;;;24.00;49.79;98888.34;4370029;32;34055;-75
2022/08/15 00:31:08;;;;;;;;;;;;;;;24.08;49.67;98890.94;4351233;32;34188;-80
2022/08/15 00:33:38;;;;;;;;;;;;;;;24.10;49.70;98882.22;4369569;32;35119;-68
2022/08/15 00:36:07;;;;;;;;;;;;;;;23.89;50.36;98883.34;4355801;32;34540;-69
2022/08/15 00:38:55;;;;;;;;;;;;;;;24.01;50.10;98882.44;4359117;32;34249;-83
2022/08/15 00:41:39;;;;;;;;;;;;;;;24.03;49.96;98885.66;4375196;32;34304;-67
2022/08/15 00:44:07;;;;;;;;;;;;;;;23.98;50.10;98872.06;4356865;32;34192;-67
2022/08/15 00:46:36;;;;;;;;;;;;;;;23.73;50.76;98877.78;4376490;32;35413;-68
2022/08/15 00:49:04;;;;;;;;;;;;;;;23.72;51.02;98880.94;4375631;32;34080;-67
2022/08/15 00:51:41;;;;;;;;;;;;;;;23.54;51.43;98891.53;4355744;32;34174;-66
2022/08/15 00:54:38;;;;;;;;;;;;;;;23.32;51.63;98888.22;4361830;32;35114;-67
2022/08/15 00:57:28;;;;;;;;;;;;;;;23.47;51.29;98883.84;4369908;32;34470;-67
2022/08/15 01:00:17;;;;;;;;;;;;;;;23.74;50.87;98887.72;4354799;32;34221;-65
2022/08/15 01:03:02;;;;;;;;;;;;;;;23.76;50.92;98884.62;4358654;32;33318;-67
2022/08/15 01:05:29;;;;;;;;;;;;;;;23.79;50.67;98878.34;4355719;32;34198;-82
2022/08/15 01:07:57;;;;;;;;;;;;;;;23.63;51.12;98875.56;4374805;32;34321;-75
2022/08/15 01:10:24;;;;;;;;;;;;;;;23.68;51.07;98880.81;4357439;32;34515;-78
2022/08/15 01:12:54;;;;;;;;;;;;;;;23.38;51.91;98883.22;4357704;32;33476;-67
2022/08/15 01:15:22;;;;;;;;;;;;;;;23.39;51.79;98887.63;4358501;32;33857;-67
2022/08/15 01:18:09;;;;;;;;;;;;;;;23.54;51.55;98894.31;4357481;32;35287;-67
2022/08/15 01:20:56;;;;;;;;;;;;;;;23.60;51.26;98889.31;4373008;32;34939;-67
2022/08/15 01:23:30;;;;;;;;;;;;;;;23.57;51.41;98892.81;4351676;32;32750;-67
2022/08/15 01:26:17;;;;;;;;;;;;;;;23.52;51.52;98886.38;4367649;32;34304;-67
2022/08/15 01:29:05;;;;;;;;;;;;;;;23.26;52.32;98886.88;4357671;32;35324;-68
2022/08/15 01:31:36;;;;;;;;;;;;;;;22.90;53.24;98891.41;4358006;32;33938;-67
2022/08/15 01:34:16;;;;;;;;;;;;;;;23.19;52.74;98896.94;4349631;32;32837;-66
2022/08/15 01:36:47;;;;;;;;;;;;;;;23.05;53.13;98897.38;4345924;32;33317;-67
2022/08/15 01:39:19;;;;;;;;;;;;;;;23.19;52.80;98903.28;4355606;32;35424;-83
2022/08/15 01:41:49;;;;;;;;;;;;;;;23.22;52.64;98902.59;4359008;32;35029;-67
2022/08/15 01:44:25;;;;;;;;;;;;;;;23.11;52.92;98910.59;4376514;32;32843;-67
2022/08/15 01:47:03;;;;;;;;;;;;;;;23.24;52.42;98907.75;4376410;32;33989;-67
2022/08/15 01:49:41;;;;;;;;;;;;;;;23.23;52.40;98908.91;4369247;32;33904;-67
2022/08/15 01:52:10;;;;;;;;;;;;;;;23.13;52.75;98907.44;4346665;32;34935;-65
2022/08/15 01:54:58;;;;;;;;;;;;;;;23.07;52.97;98897.81;4361287;32;33061;-68
2022/08/15 01:57:32;;;;;;;;;;;;;;;23.05;53.26;98900.12;4375758;32;33733;-72
2022/08/15 02:00:01;;;;;;;;;;;;;;;23.01;53.22;98902.00;4376494;32;34482;-67
2022/08/15 02:02:39;;;;;;;;;;;;;;;22.66;54.09;98900.59;4357598;32;35167;-67
2022/08/15 02:05:13;;;;;;;;;;;;;;;22.52;54.29;98905.69;4361960;32;34430;-67
2022/08/15 02:07:41;;;;;;;;;;;;;;;21.90;56.53;98910.47;4355238;32;35050;-67
2022/08/15 02:10:29;;;;;;;;;;;;;;;21.77;56.98;98917.09;4356317;32;35410;-67
2022/08/15 02:12:59;;;;;;;;;;;;;;;21.15;58.46;98918.91;4369080;32;35091;-67
2022/08/15 02:15:40;;;;;;;;;;;;;;;21.99;56.24;98911.16;4376465;32;34253;-67
2022/08/15 02:18:10;;;;;;;;;;;;;;;22.35;55.06;98905.97;4356953;32;34254;-66
2022/08/15 02:20:46;;;;;;;;;;;;;;;22.41;54.53;98908.12;4345845;32;35156;-67
2022/08/15 02:23:17;;;;;;;;;;;;;;;22.40;54.52;98909.28;4374144;32;33223;-68
2022/08/15 02:25:47;;;;;;;;;;;;;;;22.63;54.02;98903.25;4351071;32;33331;-68
2022/08/15 02:28:15;;;;;;;;;;;;;;;22.56;54.33;98911.34;4357991;32;34790;-68
2022/08/15 02:31:07;;;;;;;;;;;;;;;22.43;54.67;98907.78;4356155;32;34067;-76
2022/08/15 02:33:37;;;;;;;;;;;;;;;22.30;55.03;98901.47;4373360;32;34267;-78
2022/08/15 02:36:05;;;;;;;;;;;;;;;22.54;54.67;98906.16;4372043;32;34107;-79
2022/08/15 02:38:38;;;;;;;;;;;;;;;22.47;54.82;98900.41;4376095;32;34203;-67
2022/08/15 02:41:16;;;;;;;;;;;;;;;22.27;55.34;98905.75;4371923;32;35193;-68
2022/08/15 02:43:43;;;;;;;;;;;;;;;22.63;54.48;98903.25;4356767;32;34193;-68
2022/08/15 02:46:11;;;;;;;;;;;;;;;22.41;55.05;98902.59;4362668;32;33364;-67
2022/08/15 02:48:58;;;;;;;;;;;;;;;22.20;55.58;98901.91;4373145;32;33780;-66
2022/08/15 02:51:27;;;;;;;;;;;;;;;22.25;55.51;98897.00;4357090;32;34193;-67
2022/08/15 02:54:13;;;;;;;;;;;;;;;22.15;55.76;98891.09;4356534;32;34194;-67
2022/08/15 02:57:01;;;;;;;;;;;;;;;22.11;55.80;98894.53;4359383;32;33460;-83
2022/08/15 02:59:30;;;;;;;;;;;;;;;21.77;56.84;98893.09;4348312;32;34196;-82
2022/08/15 03:01:57;;;;;;;;;;;;;;;21.89;56.57;98892.28;4356119;32;35300;-76
2022/08/15 03:04:25;;;;;;;;;;;;;;;22.41;55.28;98899.03;4369141;32;33989;-80
2022/08/15 03:06:56;;;;;;;;;;;;;;;22.46;54.89;98894.09;4375443;32;33962;-67
2022/08/15 03:09:25;;;;;;;;;;;;;;;22.65;54.15;98896.19;4356467;32;34956;-69
2022/08/15 03:12:01;;;;;;;;;;;;;;;22.58;54.30;98893.25;4348859;32;35252;-68
2022/08/15 03:14:48;;;;;;;;;;;;;;;22.40;54.85;98889.16;4350024;32;34734;-67
2022/08/15 03:17:16;;;;;;;;;;;;;;;22.29;55.06;98880.53;4365728;32;33558;-82
2022/08/15 03:19:44;;;;;;;;;;;;;;;22.57;54.53;98886.13;4365639;32;35004;-68
2022/08/15 03:22:12;;;;;;;;;;;;;;;22.13;55.45;98883.16;4366342;32;35239;-68
2022/08/15 03:24:59;;;;;;;;;;;;;;;22.22;55.27;98894.09;4357674;32;34304;-79
2022/08/15 03:27:30;;;;;;;;;;;;;;;21.87;56.18;98897.31;4377392;32;33832;-81
2022/08/15 03:30:01;;;;;;;;;;;;;;;21.60;56.98;98896.84;4377196;32;34987;-67
2022/08/15 03:32:30;;;;;;;;;;;;;;;21.65;56.87;98902.16;4359205;32;35103;-67
2022/08/15 03:35:02;;;;;;;;;;;;;;;22.13;55.63;98908.81;4358418;32;34770;-66
2022/08/15 03:37:29;;;;;;;;;;;;;;;22.26;55.02;98906.88;4347495;32;31711;-67
2022/08/15 03:40:10;;;;;;;;;;;;;;;22.16;55.28;98901.81;4369054;32;33734;-67
2022/08/15 03:42:38;;;;;;;;;;;;;;;22.32;54.82;98904.69;4350511;32;33609;-68
2022/08/15 03:45:08;;;;;;;;;;;;;;;22.28;54.92;98906.53;4365518;32;34272;-67
2022/08/15 03:47:36;;;;;;;;;;;;;;;22.25;55.03;98910.00;4367585;32;34261;-81
2022/08/15 03:50:09;;;;;;;;;;;;;;;22.28;55.04;98915.62;4364601;32;35084;-79
2022/08/15 03:53:02;;;;;;;;;;;;;;;22.31;55.02;98916.88;4370941;32;34329;-73
2022/08/15 03:55:31;;;;;;;;;;;;;;;22.20;55.33;98916.56;4352803;32;34344;-68
2022/08/15 03:58:01;;;;;;;;;;;;;;;21.99;56.05;98916.66;4341876;32;33480;-81
2022/08/15 04:00:33;;;;;;;;;;;;;;;22.16;55.66;98920.31;4358723;32;34120;-68
2022/08/15 04:03:06;;;;;;;;;;;;;;;22.22;55.59;98921.72;4363723;32;34407;-68
2022/08/15 04:05:35;;;;;;;;;;;;;;;22.03;56.14;98930.56;4377181;32;34045;-69
2022/08/15 04:08:09;;;;;;;;;;;;;;;21.90;56.72;98925.06;4348110;32;33441;-80
2022/08/15 04:10:57;;;;;;;;;;;;;;;21.76;57.29;98923.78;4368765;32;35119;-84
2022/08/15 04:13:25;;;;;;;;;;;;;;;22.31;55.67;98923.25;4340137;32;35414;-84
2022/08/15 04:15:53;;;;;;;;;;;;;;;22.28;55.78;98926.69;4366173;32;33672;-83
2022/08/15 04:18:41;;;;;;;;;;;;;;;22.62;54.92;98921.00;4357396;32;33354;-83
2022/08/15 04:21:11;;;;;;;;;;;;;;;22.54;55.55;98922.72;4355095;32;34205;-86
2022/08/15 04:23:40;;;;;;;;;;;;;;;22.45;55.75;98930.34;4371708;32;34445;-83
2022/08/15 04:26:11;;;;;;;;;;;;;;;22.48;55.71;98924.13;4356556;32;34724;-79
2022/08/15 04:28:48;;;;;;;;;;;;;;;22.42;56.04;98923.56;4359354;32;33367;-73
2022/08/15 04:31:24;;;;;;;;;;;;;;;22.27;57.41;98932.59;4371788;32;34295;-65
2022/08/15 04:33:59;;;;;;;;;;;;;;;22.77;56.25;98925.00;4356544;32;34280;-65
2022/08/15 04:36:47;;;;;;;;;;;;;;;22.89;55.89;98930.47;4362428;32;34494;-75
2022/08/15 04:39:16;;;;;;;;;;;;;;;23.22;55.23;98934.97;4366983;32;33654;-73
2022/08/15 04:41:46;;;;;;;;;;;;;;;23.32;53.71;98934.47;4377430;32;33911;-67
2022/08/15 04:44:17;;;;;;;;;;;;;;;23.88;52.71;98937.12;4377506;32;35410;-79
2022/08/15 04:46:45;;;;;;;;;;;;;;;24.30;51.34;98931.03;4362314;32;34367;-67
2022/08/15 04:49:13;;;;;;;;;;;;;;;24.11;52.41;98937.31;4371945;32;34864;-79
2022/08/15 04:51:44;;;;;;;;;;;;;;;24.64;51.19;98934.16;4363540;32;33437;-76
2022/08/15 04:54:11;;;;;;;;;;;;;;;25.01;50.33;98935.72;4349554;32;34372;-77
2022/08/15 04:56:42;;;;;;;;;;;;;;;24.59;51.75;98933.66;4376928;32;34257;-72
2022/08/15 04:59:18;;;;;;;;;;;;;;;25.16;49.55;98940.38;4375003;32;33401;-73
2022/08/15 05:02:04;;;;;;;;;;;;;;;24.87;48.93;98937.03;4350621;32;34313;-73
2022/08/15 05:04:52;;;;;;;;;;;;;;;25.01;48.15;98935.72;4365714;32;34491;-72
2022/08/15 05:07:19;;;;;;;;;;;;;;;24.97;48.25;98932.91;4376266;32;34048;-72
2022/08/15 05:09:58;;;;;;;;;;;;;;;24.77;49.58;98926.53;4377479;32;33222;-72
2022/08/15 05:12:38;;;;;;;;;;;;;;;24.68;50.42;98925.94;4365361;32;34360;-80
2022/08/15 05:15:09;;;;;;;;;;;;;;;24.75;49.80;98920.53;4377473;32;34482;-73
2022/08/15 05:17:38;;;;;;;;;;;;;;;24.48;51.43;98925.91;4363755;32;34179;-81
2022/08/15 05:20:24;;;;;;;;;;;;;;;25.00;49.67;98917.47;4377513;32;34253;-73
2022/08/15 05:22:57;;;;;;;;;;;;;;;25.68;47.81;98919.59;4375623;32;34266;-73
2022/08/15 05:25:28;;;;;;;;;;;;;;;25.78;46.66;98918.16;4377479;32;36009;-73
2022/08/15 05:27:55;;;;;;;;;;;;;;;25.74;47.60;98922.84;4377078;32;34418;-80
2022/08/15 05:30:23;;;;;;;;;;;;;;;25.64;48.16;98917.91;4363682;32;33483;-73
2022/08/15 05:33:04;;;;;;;;;;;;;;;25.55;47.01;98918.97;4376974;32;35099;-81
2022/08/15 05:35:40;;;;;;;;;;;;;;;24.45;50.69;98909.97;4364442;32;34378;-73
2022/08/15 05:38:11;;;;;;;;;;;;;;;24.41;51.58;98911.06;4376956;32;34032;-72
2022/08/15 05:41:02;;;;;;;;;;;;;;;24.39;51.34;98914.19;4365441;32;33505;-73
2022/08/15 05:43:30;;;;;;;;;;;;;;;23.95;53.73;98912.41;4377233;32;33709;-73
2022/08/15 05:46:26;;;;;;;;;;;;;;;24.45;52.43;98914.69;4367806;32;35394;-72
2022/08/15 05:49:16;;;;;;;;;;;;;;;24.90;49.93;98925.22;4362087;32;34387;-65
2022/08/15 05:52:02;;;;;;;;;;;;;;;24.96;49.93;98914.62;4363981;32;33211;-67
2022/08/15 05:54:32;;;;;;;;;;;;;;;24.70;51.31;98920.81;4377125;32;34248;-69
2022/08/15 05:57:09;;;;;;;;;;;;;;;24.98;49.61;98917.84;4377209;32;34179;-69
2022/08/15 05:59:42;;;;;;;;;;;;;;;25.01;50.17;98919.06;4363799;32;34012;-68
2022/08/15 06:02:22;;;;;;;;;;;;;;;25.17;48.79;98919.81;4362762;32;33162;-70
2022/08/15 06:05:11;;;;;;;;;;;;;;;25.57;48.33;98919.41;4366619;32;34110;-69
2022/08/15 06:07:44;;;;;;;;;;;;;;;26.07;48.55;98933.37;4363837;32;34440;-69
2022/08/15 06:10:26;;;;;;;;;;;;;;;26.48;45.87;98932.75;4365749;32;34958;-69
2022/08/15 06:13:03;;;;;;;;;;;;;;;26.35;47.33;98923.81;4366098;32;33369;-86
2022/08/15 06:15:40;;;;;;;;;;;;;;;26.89;46.13;98925.41;4378292;32;34985;-80
2022/08/15 06:18:09;;;;;;;;;;;;;;;27.33;44.95;98935.09;4364662;32;34529;-79
2022/08/15 06:20:43;;;;;;;;;;;;;;;27.13;44.74;98928.88;4378221;32;35294;-69
2022/08/15 06:23:41;;;;;;;;;;;;;;;28.00;43.10;98926.59;4378183;32;34251;-77
2022/08/15 06:26:15;;;;;;;;;;;;;;;28.76;41.13;98927.09;4357226;32;34835;-79
2022/08/15 06:28:46;;;;;;;;;;;;;;;29.01;40.89;98933.59;4362314;32;34560;-80
2022/08/15 06:31:24;;;;;;;;;;;;;;;29.35;39.65;98924.13;4374622;32;35048;-68
2022/08/15 06:34:27;;;;;;;;;;;;;;;29.71;39.00;98925.03;4373094;32;33070;-72
2022/08/15 06:37:28;;;;;;;;;;;;;;;29.77;37.93;98933.81;4356597;32;34212;-70
2022/08/15 06:39:59;;;;;;;;;;;;;;;30.40;38.16;98931.41;4354996;32;34554;-70
2022/08/15 06:42:45;;;;;;;;;;;;;;;30.39;37.43;98938.19;4366536;32;34250;-84
2022/08/15 06:45:20;;;;;;;;;;;;;;;30.03;37.76;98933.41;4364802;32;34207;-80
2022/08/15 06:47:51;;;;;;;;;;;;;;;30.09;38.24;98931.03;4364005;32;33832;-84
2022/08/15 06:50:23;;;;;;;;;;;;;;;30.23;37.96;98935.78;4360743;32;35256;-84
2022/08/15 06:53:14;;;;;;;;;;;;;;;30.33;37.33;98932.22;4359123;32;32445;-82
2022/08/15 06:55:52;;;;;;;;;;;;;;;30.41;37.24;98931.00;4366817;32;33558;-81
2022/08/15 06:58:34;;;;;;;;;;;;;;;29.85;39.58;98913.06;4365700;32;34726;-83
2022/08/15 07:01:21;;;;;;;;;;;;;;;30.98;37.39;98926.47;4377298;32;35388;-67
2022/08/15 07:03:52;;;;;;;;;;;;;;;30.76;36.79;98926.53;4378149;32;34849;-77
2022/08/15 07:06:21;;;;;;;;;;;;;;;31.06;36.50;98933.63;4362952;32;32805;-75
2022/08/15 07:08:58;;;;;;;;;;;;;;;30.96;36.05;98926.06;4364911;32;34171;-68
2022/08/15 07:11:30;;;;;;;;;;;;;;;31.34;35.22;98915.88;4363293;32;34478;-67
2022/08/15 07:14:07;;;;;;;;;;;;;;;31.16;35.61;98929.19;4354796;32;34545;-65
2022/08/15 07:17:07;;;;;;;;;;;;;;;30.50;36.75;98933.41;4371677;32;32689;-66
2022/08/15 07:19:37;;;;;;;;;;;;;;;29.24;39.04;98930.50;4360525;32;33607;-65
2022/08/15 07:22:05;;;;;;;;;;;;;;;30.02;38.37;98928.22;4371616;32;35375;-66
2022/08/15 07:24:35;;;;;;;;;;;;;;;29.36;39.56;98926.53;4375281;32;35115;-72
2022/08/15 07:27:03;;;;;;;;;;;;;;;29.58;39.12;98926.56;4376201;32;33558;-72
2022/08/15 07:29:36;;;;;;;;;;;;;;;29.86;38.76;98937.00;4362139;32;34383;-69
2022/08/15 07:32:20;;;;;;;;;;;;;;;29.91;38.83;98933.81;4374988;32;35115;-81
2022/08/15 07:35:12;;;;;;;;;;;;;;;29.63;39.24;98938.19;4377269;32;34074;-86
2022/08/15 07:37:51;;;;;;;;;;;;;;;29.58;39.29;98940.56;4375786;32;33397;-77
2022/08/15 07:40:21;;;;;;;;;;;;;;;29.27;39.90;98933.72;4364368;32;33632;-78
2022/08/15 07:42:57;;;;;;;;;;;;;;;29.91;38.99;98933.81;4364305;32;35347;-70
2022/08/15 07:45:38;;;;;;;;;;;;;;;29.80;39.30;98936.59;4360864;32;34843;-87
2022/08/15 07:48:11;;;;;;;;;;;;;;;29.67;39.03;98938.16;4362857;32;33687;-75
2022/08/15 07:50:42;;;;;;;;;;;;;;;29.56;39.77;98937.34;4370701;32;33910;-83
2022/08/15 07:53:15;;;;;;;;;;;;;;;29.62;39.91;98939.34;4362780;32;35168;-76
2022/08/15 07:56:04;;;;;;;;;;;;;;;30.07;39.39;98941.03;4359469;32;33714;-67
2022/08/15 07:58:54;;;;;;;;;;;;;;;30.26;38.69;98937.81;4358946;32;31306;-65
2022/08/15 08:01:25;;;;;;;;;;;;;;;30.59;37.83;98941.37;4377667;32;34003;-71
2022/08/15 08:04:12;;;;;;;;;;;;;;;30.90;37.35;98939.69;4353974;32;35162;-70
2022/08/15 08:06:52;;;;;;;;;;;;;;;30.81;36.13;98936.50;4358764;32;34716;-66
2022/08/15 08:09:30;;;;;;;;;;;;;;;30.75;36.90;98938.91;4369662;32;33674;-66
2022/08/15 08:12:28;;;;;;;;;;;;;;;30.83;36.93;98936.91;4373713;32;32828;-68
2022/08/15 08:15:19;;;;;;;;;;;;;;;31.36;34.68;98941.50;4367758;32;34268;-70
2022/08/15 08:18:12;;;;;;;;;;;;;;;31.35;35.51;98941.87;4375788;32;34619;-85
2022/08/15 08:20:57;;;;;;;;;;;;;;;31.70;33.91;98943.69;4361021;32;33249;-76
2022/08/15 08:23:32;;;;;;;;;;;;;;;31.71;33.74;98938.88;4356230;32;34012;-85
2022/08/15 08:26:10;;;;;;;;;;;;;;;31.63;34.49;98938.12;4361906;32;34466;-78
2022/08/15 08:29:03;;;;;;;;;;;;;;;31.28;34.09;98945.53;4367198;32;34942;-66
2022/08/15 08:31:54;;;;;;;;;;;;;;;30.87;35.60;98937.72;4356582;32;33157;-69
2022/08/15 08:34:39;;;;;;;;;;;;;;;30.10;37.32;98929.03;4362182;32;34033;-82
2022/08/15 08:37:22;;;;;;;;;;;;;;;30.46;36.21;98927.00;4357731;32;34852;-87
2022/08/15 08:39:54;;;;;;;;;;;;;;;31.21;34.74;98934.34;4357562;32;33687;-67
2022/08/15 08:42:33;;;;;;;;;;;;;;;31.51;34.98;98928.19;4355863;32;33212;-67
2022/08/15 08:45:11;;;;;;;;;;;;;;;31.73;35.29;98928.03;4377477;32;34991;-74
2022/08/15 08:47:39;;;;;;;;;;;;;;;31.64;32.28;98937.72;4358315;32;34331;-83
2022/08/15 08:50:27;;;;;;;;;;;;;;;31.63;32.41;98926.91;4377522;32;33815;-86
2022/08/15 08:53:05;;;;;;;;;;;;;;;31.74;32.37;98929.66;4375525;32;33435;-78
2022/08/15 08:55:38;;;;;;;;;;;;;;;30.85;34.81;98929.69;4373309;32;35113;-96
2022/08/15 08:58:15;;;;;;;;;;;;;;;31.13;34.55;98933.59;4350998;32;34286;-68
2022/08/15 09:01:04;;;;;;;;;;;;;;;31.36;33.50;98933.09;4343442;32;34475;-66
2022/08/15 09:03:34;;;;;;;;;;;;;;;32.21;32.40;98927.28;4376469;32;34382;-80
2022/08/15 09:06:03;;;;;;;;;;;;;;;31.75;34.22;98925.63;4352976;32;34009;-71
2022/08/15 09:08:40;;;;;;;;;;;;;;;32.56;31.14;98923.31;4357482;32;33087;-76
2022/08/15 09:11:21;;;;;;;;;;;;;;;32.10;33.31;98915.38;4365048;32;35088;-68
2022/08/15 09:13:52;;;;;;;;;;;;;;;32.63;31.99;98925.25;4357113;32;34361;-66
2022/08/15 09:16:35;;;;;;;;;;;;;;;32.46;30.16;98910.97;4358411;32;34034;-68
2022/08/15 09:19:10;;;;;;;;;;;;;;;32.62;28.84;98910.44;4356816;32;34254;-69
2022/08/15 09:21:38;;;;;;;;;;;;;;;32.77;29.08;98913.06;4361639;32;34115;-67
2022/08/15 09:24:10;;;;;;;;;;;;;;;32.74;28.77;98914.69;4350411;32;33559;-76
2022/08/15 09:27:04;;;;;;;;;;;;;;;32.43;29.05;98906.19;4354478;32;34300;-73
2022/08/15 09:29:35;;;;;;;;;;;;;;;32.85;28.77;98915.38;4369609;32;35268;-79
2022/08/15 09:32:28;;;;;;;;;;;;;;;33.06;29.00;98907.88;4361205;32;34137;-72
2022/08/15 09:35:08;;;;;;;;;;;;;;;32.97;29.02;98911.19;4358228;32;33157;-76
2022/08/15 09:37:42;;;;;;;;;;;;;;;32.97;28.13;98904.78;4332598;32;34098;-76
2022/08/15 09:40:28;;;;;;;;;;;;;;;32.82;28.71;98910.59;4352205;32;34757;-72
2022/08/15 09:43:18;;;;;;;;;;;;;;;32.51;28.49;98912.53;4368857;32;34337;-72
2022/08/15 09:45:52;;;;;;;;;;;;;;;33.04;27.68;98901.88;4363735;32;33994;-71
2022/08/15 09:48:30;;;;;;;;;;;;;;;32.66;29.77;98899.94;4359401;32;34349;-73
2022/08/15 09:51:01;;;;;;;;;;;;;;;32.30;29.86;98893.91;4372056;32;35511;-67
2022/08/15 09:53:28;;;;;;;;;;;;;;;33.03;29.56;98900.31;4372876;32;34480;-69
2022/08/15 09:56:17;;;;;;;;;;;;;;;33.27;28.11;98895.56;4376210;32;34191;-78
2022/08/15 09:58:51;;;;;;;;;;;;;;;33.27;28.64;98899.19;4349992;32;33703;-73
2022/08/15 10:01:25;;;;;;;;;;;;;;;33.38;28.42;98904.66;4349804;32;34793;-79
2022/08/15 10:03:57;;;;;;;;;;;;;;;33.24;29.00;98896.41;4365634;32;34381;-78
2022/08/15 10:06:26;;;;;;;;;;;;;;;33.52;28.27;98883.94;4367281;32;34227;-70
2022/08/15 10:09:02;;;;;;;;;;;;;;;33.73;27.26;98880.03;4351745;32;33235;-70
2022/08/15 10:11:33;;;;;;;;;;;;;;;33.78;24.83;98882.38;4367750;32;34455;-77
2022/08/15 10:14:15;;;;;;;;;;;;;;;33.86;25.74;98866.94;4353457;32;34939;-75
2022/08/15 10:16:43;;;;;;;;;;;;;;;33.74;25.57;98878.00;4354541;32;32905;-68
2022/08/15 10:19:30;;;;;;;;;;;;;;;33.96;25.48;98872.81;4360068;32;34122;-68
2022/08/15 10:22:19;;;;;;;;;;;;;;;33.67;26.06;98873.28;4362000;32;34379;-68
2022/08/15 10:25:07;;;;;;;;;;;;;;;34.02;25.25;98859.81;4376419;32;35335;-68
2022/08/15 10:27:53;;;;;;;;;;;;;;;34.16;25.28;98862.41;4375557;32;34790;-66
2022/08/15 10:30:21;;;;;;;;;;;;;;;34.07;25.44;98862.94;4362943;32;34823;-67
2022/08/15 10:33:30;;;;;;;;;;;;;;;34.27;24.15;98857.37;4365577;32;34350;-68
2022/08/15 10:36:13;;;;;;;;;;;;;;;34.18;23.98;98862.00;4375362;32;35332;-72
2022/08/15 10:39:02;;;;;;;;;;;;;;;33.90;25.23;98855.63;4346921;33;34085;-65
2022/08/15 10:41:40;;;;;;;;;;;;;;;34.13;24.64;98854.03;4358796;32;34235;-66
2022/08/15 10:44:27;;;;;;;;;;;;;;;33.96;24.98;98850.31;4345727;33;34315;-70
2022/08/15 10:47:20;;;;;;;;;;;;;;;33.89;24.75;98863.28;4365442;32;34448;-67
2022/08/15 10:49:56;;;;;;;;;;;;;;;33.99;24.76;98847.41;4376458;32;33597;-66
2022/08/15 10:52:34;;;;;;;;;;;;;;;34.01;24.71;98844.16;4376193;32;33716;-66
2022/08/15 10:55:23;;;;;;;;;;;;;;;34.19;24.49;98847.50;4342455;32;34176;-66
2022/08/15 10:58:12;;;;;;;;;;;;;;;34.84;24.13;98838.53;4350538;32;34073;-72
2022/08/15 11:00:42;;;;;;;;;;;;;;;34.79;24.99;98839.03;4348146;32;33413;-76
2022/08/15 11:03:22;;;;;;;;;;;;;;;34.93;24.40;98844.38;4361324;32;34169;-67
2022/08/15 11:06:14;;;;;;;;;;;;;;;35.02;24.78;98837.34;4361259;32;33855;-66
2022/08/15 11:08:43;;;;;;;;;;;;;;;34.97;25.11;98840.66;4351636;32;34902;-66
2022/08/15 11:11:11;;;;;;;;;;;;;;;35.32;24.41;98837.06;4362605;32;33372;-74
2022/08/15 11:13:56;;;;;;;;;;;;;;;35.11;24.44;98832.69;4359662;32;33566;-69
2022/08/15 11:16:29;;;;;;;;;;;;;;;35.19;24.29;98830.53;4363012;32;34530;-77
2022/08/15 11:19:22;;;;;;;;;;;;;;;34.81;25.43;98819.69;4363523;32;34223;-77
2022/08/15 11:22:17;;;;;;;;;;;;;;;34.85;24.46;98820.41;4362906;32;33246;-71
2022/08/15 11:24:55;;;;;;;;;;;;;;;35.28;24.27;98825.06;4354669;32;34044;-67
2022/08/15 11:27:27;;;;;;;;;;;;;;;35.11;23.98;98821.41;4364915;32;34616;-68
2022/08/15 11:29:59;;;;;;;;;;;;;;;35.49;23.99;98823.78;4340508;32;33551;-67
2022/08/15 11:32:47;;;;;;;;;;;;;;;35.41;24.10;98830.03;4348047;32;34080;-74
2022/08/15 11:35:26;;;;;;;;;;;;;;;35.38;24.27;98828.06;4352589;32;34205;-77
2022/08/15 11:37:55;;;;;;;;;;;;;;;35.62;24.40;98818.22;4349885;32;34240;-67
2022/08/15 11:40:26;;;;;;;;;;;;;;;35.62;23.49;98823.06;4357768;32;34428;-77
2022/08/15 11:42:54;;;;;;;;;;;;;;;35.84;22.47;98818.47;4369968;32;34254;-78
2022/08/15 11:45:37;;;;;;;;;;;;;;;35.51;22.75;98814.88;4358948;32;34849;-76
2022/08/15 11:48:27;;;;;;;;;;;;;;;35.17;22.24;98818.91;4359018;32;34176;-76
2022/08/15 11:51:06;;;;;;;;;;;;;;;34.78;22.23;98820.56;4359644;32;35081;-67
2022/08/15 11:53:38;;;;;;;;;;;;;;;34.56;22.36;98819.37;4369301;32;34088;-76
2022/08/15 11:56:05;;;;;;;;;;;;;;;34.64;22.64;98809.59;4366863;32;34008;-77
2022/08/15 11:58:49;;;;;;;;;;;;;;;34.49;23.05;98809.88;4360545;32;34358;-75
2022/08/15 12:01:31;;;;;;;;;;;;;;;34.41;24.22;98807.66;4364398;32;34697;-70
2022/08/15 12:04:02;;;;;;;;;;;;;;;34.68;23.46;98807.50;4373560;32;32714;-70
2022/08/15 12:09:57;;;;;;;;;;;;;;;34.18;23.59;98800.06;4850653;27;20112;-71
2022/08/15 12:12:32;;;;;;;;;;;;;;;34.21;24.00;98796.37;4315766;33;34148;-75
2022/08/15 12:15:18;;;;;;;;;;;;;;;33.81;24.90;98790.69;4315506;33;32608;-66
2022/08/15 12:18:02;;;;;;;;;;;;;;;34.27;24.07;98786.19;4316273;33;35120;-76
2022/08/15 12:20:41;;;;;;;;;;;;;;;33.84;24.54;98787.00;4317226;33;34618;-77
2022/08/15 12:23:38;;;;;;;;;;;;;;;33.17;24.15;98778.47;4316499;33;35057;-69
2022/08/15 12:26:16;;;;;;;;;;;;;;;33.87;23.93;98772.06;4309006;33;32234;-69
2022/08/15 12:29:03;;;;;;;;;;;;;;;34.18;23.86;98767.06;4320677;33;34135;-69
2022/08/15 12:31:36;;;;;;;;;;;;;;;34.18;23.21;98764.25;4334158;33;34334;-69
2022/08/15 12:34:03;;;;;;;;;;;;;;;34.34;24.27;98759.91;4321128;33;34428;-69
2022/08/15 12:36:51;;;;;;;;;;;;;;;34.72;22.97;98760.31;4334064;33;33817;-69
2022/08/15 12:39:34;;;;;;;;;;;;;;;34.43;23.36;98769.38;4334348;33;34964;-69
2022/08/15 12:42:02;;;;;;;;;;;;;;;34.50;23.75;98774.84;4334314;33;34208;-69
2022/08/15 12:44:51;;;;;;;;;;;;;;;34.64;23.18;98762.50;4323065;33;34222;-69
2022/08/15 12:47:21;;;;;;;;;;;;;;;34.15;25.60;98755.88;4332963;33;33259;-69
2022/08/15 16:15:11;;;;;;;;;;;;;;;33.83;23.42;98690.53;5113210;27;21252;-78
2022/08/15 16:17:40;;;;;;;;;;;;;;;33.51;24.16;98696.75;4349162;32;35468;-80
2022/08/15 16:20:26;;;;;;;;;;;;;;;33.33;25.05;98699.91;4363297;32;34428;-70
2022/08/15 16:23:16;;;;;;;;;;;;;;;33.28;24.83;98689.13;4351606;32;33899;-77
2022/08/15 16:25:49;;;;;;;;;;;;;;;33.35;24.88;98693.81;4348093;32;35030;-79
2022/08/15 16:28:32;;;;;;;;;;;;;;;33.40;24.70;98699.75;4349406;32;34070;-74
2022/08/15 16:31:03;;;;;;;;;;;;;;;33.81;24.53;98697.84;4349515;32;34882;-70
2022/08/15 16:33:42;;;;;;;;;;;;;;;33.60;24.33;98693.41;4350208;32;34149;-83
2022/08/15 16:36:12;;;;;;;;;;;;;;;33.60;24.63;98687.78;4348931;32;35167;-80
2022/08/15 16:38:56;;;;;;;;;;;;;;;33.65;25.77;98704.16;4361508;32;34497;-81
2022/08/15 16:41:38;;;;;;;;;;;;;;;33.76;24.61;98685.06;4351353;32;34218;-69
2022/08/15 16:44:27;;;;;;;;;;;;;;;33.43;24.79;98689.66;4341648;32;34085;-69
2022/08/15 16:46:57;;;;;;;;;;;;;;;33.60;24.54;98697.00;4362476;32;34929;-70
2022/08/15 16:49:41;;;;;;;;;;;;;;;33.18;24.53;98688.09;4362968;32;34479;-82
2022/08/15 16:52:21;;;;;;;;;;;;;;;33.42;24.45;98688.09;4349296;32;34362;-79
2022/08/15 16:54:57;;;;;;;;;;;;;;;33.24;24.41;98682.78;4350610;32;33050;-77
2022/08/15 16:57:33;;;;;;;;;;;;;;;33.23;24.47;98693.22;4362786;32;34310;-67
2022/08/15 17:00:01;;;;;;;;;;;;;;;33.20;24.51;98691.28;4364537;32;34739;-68
2022/08/15 17:02:58;;;;;;;;;;;;;;;32.94;25.28;98689.28;4363001;32;35082;-69
2022/08/15 17:05:42;;;;;;;;;;;;;;;33.11;25.32;98685.41;4355861;32;33264;-68
2022/08/15 17:08:16;;;;;;;;;;;;;;;33.07;25.43;98696.72;4349546;32;34806;-70